Time;durP1;ratioP1;P1;durP2;ratioP2;P2;SDS_P1;SDS_P2;PMS_P1;PMS_P2;Temp;Humidity;BMP_temperature;BMP_pressure;BME280_temperature;BME280_humidity;BME280_pressure;Samples;Min_cycle;Max_cycle;Signal;HPM_P1;HPM_P2
2022/06/11 00:01:13;;;;;;;6.85;5.90;;;;;;;;;;5053364;28;20172;-67
2022/06/11 00:03:39;;;;;;;5.72;4.80;;;;;;;;;;5053322;28;20588;-67
2022/06/11 00:06:05;;;;;;;5.68;5.03;;;;;;;;;;5053300;28;20516;-67
2022/06/11 00:08:31;;;;;;;6.03;4.53;;;;;;;;;;5053269;28;20175;-67
2022/06/11 00:10:57;;;;;;;8.25;4.50;;;;;;;;;;5053286;28;20612;-67
2022/06/11 00:13:23;;;;;;;6.00;3.80;;;;;;;;;;5053542;28;20175;-67
2022/06/11 00:15:50;;;;;;;6.80;4.10;;;;;;;;;;5053081;28;20435;-67
2022/06/11 00:18:17;;;;;;;8.00;4.30;;;;;;;;;;5053164;28;20266;-67
2022/06/11 00:20:43;;;;;;;5.85;4.80;;;;;;;;;;5053149;28;20253;-67
2022/06/11 00:23:09;;;;;;;6.47;5.70;;;;;;;;;;5053208;28;20208;-67
2022/06/11 00:25:35;;;;;;;7.03;6.00;;;;;;;;;;5053087;28;20164;-67
2022/06/11 00:28:02;;;;;;;7.75;6.35;;;;;;;;;;5053033;28;20283;-68
2022/06/11 00:30:28;;;;;;;8.60;6.93;;;;;;;;;;5053069;28;20217;-67
2022/06/11 00:32:57;;;;;;;9.40;8.23;;;;;;;;;;5053744;28;20176;-67
2022/06/11 00:35:24;;;;;;;8.38;7.57;;;;;;;;;;5053605;28;20238;-67
2022/06/11 00:37:50;;;;;;;8.23;7.53;;;;;;;;;;5053049;28;20200;-67
2022/06/11 00:40:17;;;;;;;10.00;7.97;;;;;;;;;;5052928;28;20631;-67
2022/06/11 00:42:43;;;;;;;9.63;8.73;;;;;;;;;;5052987;28;20260;-67
2022/06/11 00:45:15;;;;;;;10.38;9.40;;;;;;;;;;5052950;28;20168;-67
2022/06/11 00:47:43;;;;;;;10.30;9.30;;;;;;;;;;5053173;28;20196;-67
2022/06/11 00:50:18;;;;;;;13.52;10.00;;;;;;;;;;5056574;28;20199;-67
2022/06/11 00:52:45;;;;;;;10.02;9.00;;;;;;;;;;5056714;28;20164;-67
2022/06/11 00:55:30;;;;;;;10.38;9.38;;;;;;;;;;5056955;28;20169;-67
2022/06/11 00:57:58;;;;;;;10.45;8.88;;;;;;;;;;5056579;28;20164;-67
2022/06/11 01:00:31;;;;;;;10.80;9.70;;;;;;;;;;5056544;28;20168;-67
2022/06/11 01:02:59;;;;;;;10.50;9.45;;;;;;;;;;5056772;28;20259;-66
2022/06/11 01:05:27;;;;;;;11.23;8.80;;;;;;;;;;5056732;28;20183;-67
2022/06/11 01:08:04;;;;;;;10.00;8.98;;;;;;;;;;5056469;28;20746;-67
2022/06/11 01:10:42;;;;;;;10.05;9.05;;;;;;;;;;5056438;28;20159;-67
2022/06/11 01:13:30;;;;;;;11.90;10.55;;;;;;;;;;5056432;28;20197;-67
2022/06/11 01:15:58;;;;;;;10.32;9.23;;;;;;;;;;5056345;28;20145;-67
2022/06/11 01:18:39;;;;;;;10.25;9.35;;;;;;;;;;5056378;28;20195;-67
2022/06/11 01:21:14;;;;;;;11.02;10.02;;;;;;;;;;5056330;28;20145;-67
2022/06/11 01:23:59;;;;;;;10.98;9.57;;;;;;;;;;5056327;28;20598;-67
2022/06/11 01:26:42;;;;;;;10.55;9.43;;;;;;;;;;5056348;28;20184;-67
2022/06/11 01:29:11;;;;;;;11.50;9.88;;;;;;;;;;5055975;28;20607;-67
2022/06/11 01:31:49;;;;;;;12.40;10.68;;;;;;;;;;5056290;28;20208;-68
2022/06/11 01:34:27;;;;;;;10.98;9.85;;;;;;;;;;5056110;28;20621;-66
2022/06/11 01:36:55;;;;;;;11.32;10.23;;;;;;;;;;5056287;28;20167;-66
2022/06/11 01:39:37;;;;;;;11.38;10.27;;;;;;;;;;5056032;28;20218;-68
2022/06/11 01:42:13;;;;;;;11.75;10.55;;;;;;;;;;5054842;28;20269;-68
2022/06/11 01:44:40;;;;;;;11.82;10.65;;;;;;;;;;5055895;28;20243;-68
2022/06/11 01:47:07;;;;;;;12.02;10.93;;;;;;;;;;5055692;28;20325;-66
2022/06/11 01:49:37;;;;;;;11.82;10.63;;;;;;;;;;5055767;28;20251;-68
2022/06/11 01:52:15;;;;;;;12.25;11.00;;;;;;;;;;5055725;28;20161;-68
2022/06/11 01:55:17;;;;;;;12.55;11.35;;;;;;;;;;5055592;28;20149;-68
2022/06/11 01:58:02;;;;;;;12.40;11.18;;;;;;;;;;5013898;28;20256;-68
2022/06/11 02:00:36;;;;;;;12.80;11.18;;;;;;;;;;5052596;28;20206;-67
2022/06/11 02:03:03;;;;;;;11.73;10.57;;;;;;;;;;5055983;28;20203;-68
2022/06/11 02:05:35;;;;;;;11.70;10.60;;;;;;;;;;5055978;28;20229;-68
2022/06/11 02:08:20;;;;;;;13.05;11.85;;;;;;;;;;5055409;28;20188;-66
2022/06/11 02:10:49;;;;;;;14.95;12.57;;;;;;;;;;5055914;28;20160;-67
2022/06/11 02:13:28;;;;;;;14.32;11.45;;;;;;;;;;5055470;28;20172;-67
2022/06/11 02:16:07;;;;;;;12.88;11.18;;;;;;;;;;5055453;28;20149;-67
2022/06/11 02:18:34;;;;;;;14.23;12.60;;;;;;;;;;5055390;28;20155;-67
2022/06/11 02:21:02;;;;;;;13.65;12.25;;;;;;;;;;5055482;28;20241;-67
2022/06/11 02:23:32;;;;;;;13.95;12.55;;;;;;;;;;5055176;28;20167;-67
2022/06/11 02:26:01;;;;;;;14.00;12.60;;;;;;;;;;5054927;28;20165;-67
2022/06/11 02:28:29;;;;;;;15.00;12.57;;;;;;;;;;5055012;28;20471;-67
2022/06/11 02:30:58;;;;;;;13.98;12.57;;;;;;;;;;5054899;28;20156;-67
2022/06/11 02:33:24;;;;;;;14.27;12.90;;;;;;;;;;5055169;28;20165;-68
2022/06/11 02:35:50;;;;;;;14.55;12.95;;;;;;;;;;5055199;28;20494;-67
2022/06/11 02:38:18;;;;;;;14.73;13.32;;;;;;;;;;5054834;28;20160;-67
2022/06/11 02:40:54;;;;;;;16.35;13.85;;;;;;;;;;5054974;28;20165;-67
2022/06/11 02:43:20;;;;;;;16.60;13.80;;;;;;;;;;5055644;28;20222;-67
2022/06/11 02:45:46;;;;;;;15.43;13.93;;;;;;;;;;5054804;28;20167;-67
2022/06/11 02:48:13;;;;;;;15.68;14.02;;;;;;;;;;5054600;28;20192;-67
2022/06/11 02:50:39;;;;;;;15.50;13.80;;;;;;;;;;5054563;28;20260;-67
2022/06/11 02:53:07;;;;;;;15.57;13.95;;;;;;;;;;5054559;28;20180;-67
2022/06/11 02:55:33;;;;;;;17.90;14.00;;;;;;;;;;5054503;28;20165;-67
2022/06/11 02:57:59;;;;;;;15.48;13.98;;;;;;;;;;5054490;28;20207;-67
2022/06/11 03:00:28;;;;;;;14.93;13.32;;;;;;;;;;5054653;28;20164;-67
2022/06/11 03:02:54;;;;;;;16.65;14.07;;;;;;;;;;5054611;28;20199;-67
2022/06/11 03:05:24;;;;;;;14.60;13.18;;;;;;;;;;5054309;28;20203;-67
2022/06/11 03:07:50;;;;;;;15.30;13.80;;;;;;;;;;5054533;28;20699;-67
2022/06/11 03:10:17;;;;;;;16.40;14.05;;;;;;;;;;5054522;28;20222;-67
2022/06/11 03:12:43;;;;;;;15.70;13.77;;;;;;;;;;5053457;28;20318;-67
2022/06/11 03:15:11;;;;;;;15.05;13.55;;;;;;;;;;5054181;28;20644;-67
2022/06/11 03:17:37;;;;;;;14.35;12.63;;;;;;;;;;5054000;28;20172;-67
2022/06/11 03:20:04;;;;;;;14.23;12.85;;;;;;;;;;5054058;28;20799;-67
2022/06/11 03:22:30;;;;;;;14.20;12.82;;;;;;;;;;5053905;28;20207;-67
2022/06/11 03:24:56;;;;;;;15.18;13.40;;;;;;;;;;5053890;28;20185;-67
2022/06/11 03:27:23;;;;;;;14.38;12.93;;;;;;;;;;5053784;28;20219;-67
2022/06/11 03:29:49;;;;;;;13.48;12.15;;;;;;;;;;5053804;28;20365;-67
2022/06/11 03:32:15;;;;;;;15.68;12.57;;;;;;;;;;5053823;28;20501;-67
2022/06/11 03:34:41;;;;;;;13.63;12.30;;;;;;;;;;5053795;28;20514;-67
2022/06/11 03:37:07;;;;;;;13.60;12.27;;;;;;;;;;5053674;28;20168;-67
2022/06/11 03:39:33;;;;;;;16.50;13.52;;;;;;;;;;5053887;28;20622;-67
2022/06/11 03:41:59;;;;;;;13.65;12.35;;;;;;;;;;5053840;28;20204;-67
2022/06/11 03:44:26;;;;;;;13.50;12.10;;;;;;;;;;5053726;28;20169;-67
2022/06/11 03:46:52;;;;;;;14.27;12.35;;;;;;;;;;5053573;28;20558;-67
2022/06/11 03:49:18;;;;;;;14.43;12.55;;;;;;;;;;5053665;28;20164;-68
2022/06/11 03:51:45;;;;;;;12.45;11.20;;;;;;;;;;5053773;28;20168;-68
2022/06/11 03:54:11;;;;;;;13.80;12.15;;;;;;;;;;5053449;28;20168;-68
2022/06/11 03:56:38;;;;;;;12.60;11.15;;;;;;;;;;5053507;28;20164;-68
2022/06/11 03:59:05;;;;;;;12.73;11.43;;;;;;;;;;5053426;28;20168;-68
2022/06/11 04:01:31;;;;;;;11.60;10.57;;;;;;;;;;5053323;28;20481;-68
2022/06/11 04:04:01;;;;;;;12.13;10.52;;;;;;;;;;5053772;28;20234;-68
2022/06/11 04:06:30;;;;;;;10.65;9.68;;;;;;;;;;5053115;28;20522;-68
2022/06/11 04:08:56;;;;;;;11.40;9.32;;;;;;;;;;5053619;28;20264;-68
2022/06/11 04:11:22;;;;;;;9.98;9.02;;;;;;;;;;5053188;28;20251;-68
2022/06/11 04:13:49;;;;;;;10.95;9.27;;;;;;;;;;5053392;28;20171;-68
2022/06/11 04:16:23;;;;;;;10.00;9.10;;;;;;;;;;5053277;28;20246;-68
2022/06/11 04:18:50;;;;;;;9.32;8.43;;;;;;;;;;5053627;28;20171;-68
2022/06/11 04:21:17;;;;;;;10.10;8.30;;;;;;;;;;5053264;28;20169;-68
2022/06/11 04:23:46;;;;;;;9.15;8.30;;;;;;;;;;5056607;28;20173;-68
2022/06/11 04:26:13;;;;;;;8.93;8.13;;;;;;;;;;5058349;28;20215;-67
2022/06/11 04:28:40;;;;;;;8.70;7.90;;;;;;;;;;5057593;28;20165;-67
2022/06/11 04:31:06;;;;;;;10.30;8.40;;;;;;;;;;5058102;28;20160;-68
2022/06/11 04:33:33;;;;;;;9.45;7.93;;;;;;;;;;5058720;28;20251;-68
2022/06/11 04:35:59;;;;;;;7.97;7.20;;;;;;;;;;5058353;28;20156;-68
2022/06/11 04:38:25;;;;;;;7.97;7.38;;;;;;;;;;5058753;28;20179;-68
2022/06/11 04:40:51;;;;;;;9.93;7.18;;;;;;;;;;5058828;28;20510;-68
2022/06/11 04:43:17;;;;;;;8.70;7.90;;;;;;;;;;5058464;28;20168;-68
2022/06/11 04:45:43;;;;;;;8.07;7.25;;;;;;;;;;5059114;28;20256;-68
2022/06/11 04:48:09;;;;;;;7.55;6.80;;;;;;;;;;5058639;28;20192;-68
2022/06/11 04:50:36;;;;;;;7.40;6.80;;;;;;;;;;5059559;28;20164;-68
2022/06/11 04:53:02;;;;;;;9.02;6.93;;;;;;;;;;5061045;28;20164;-68
2022/06/11 04:55:29;;;;;;;7.57;6.88;;;;;;;;;;5064312;28;20161;-68
2022/06/11 04:57:55;;;;;;;6.30;5.70;;;;;;;;;;5062847;28;20513;-68
2022/06/11 05:00:23;;;;;;;7.68;6.53;;;;;;;;;;5059863;28;20164;-68
2022/06/11 05:02:49;;;;;;;7.13;6.40;;;;;;;;;;5061396;28;20492;-68
2022/06/11 05:05:15;;;;;;;7.07;6.47;;;;;;;;;;5057531;28;20234;-68
2022/06/11 05:07:42;;;;;;;6.53;5.93;;;;;;;;;;5056629;28;20196;-68
2022/06/11 05:10:09;;;;;;;8.48;6.18;;;;;;;;;;5056801;28;20540;-68
2022/06/11 05:12:35;;;;;;;6.82;6.20;;;;;;;;;;5056599;28;20496;-68
2022/06/11 05:15:01;;;;;;;6.78;6.18;;;;;;;;;;5056438;28;20463;-68
2022/06/11 05:17:27;;;;;;;6.93;6.22;;;;;;;;;;5056307;28;20164;-68
2022/06/11 05:19:53;;;;;;;6.32;5.53;;;;;;;;;;5056363;28;20233;-68
2022/06/11 05:22:19;;;;;;;8.02;6.15;;;;;;;;;;5056352;28;20271;-68
2022/06/11 05:24:45;;;;;;;7.32;5.63;;;;;;;;;;5056428;28;20180;-68
2022/06/11 05:27:16;;;;;;;6.00;5.50;;;;;;;;;;5055957;28;20188;-68
2022/06/11 05:29:52;;;;;;;7.82;6.00;;;;;;;;;;5056130;28;20165;-68
2022/06/11 05:32:18;;;;;;;6.40;5.80;;;;;;;;;;5056202;28;20183;-68
2022/06/11 05:34:44;;;;;;;6.22;5.63;;;;;;;;;;5055586;28;20172;-68
2022/06/11 05:37:11;;;;;;;6.88;5.90;;;;;;;;;;5055860;28;20194;-68
2022/06/11 05:39:37;;;;;;;6.55;5.95;;;;;;;;;;5055812;28;20660;-67
2022/06/11 05:42:03;;;;;;;10.65;6.00;;;;;;;;;;5056152;28;20172;-68
2022/06/11 05:44:29;;;;;;;6.05;5.25;;;;;;;;;;5054892;28;20172;-68
2022/06/11 05:46:55;;;;;;;5.47;5.05;;;;;;;;;;5055533;28;20261;-68
2022/06/11 05:49:23;;;;;;;5.63;5.13;;;;;;;;;;5055727;28;20218;-68
2022/06/11 05:51:57;;;;;;;5.88;5.40;;;;;;;;;;5055828;28;20612;-68
2022/06/11 05:54:26;;;;;;;5.82;5.32;;;;;;;;;;5055855;28;20145;-68
2022/06/11 05:56:52;;;;;;;5.63;5.13;;;;;;;;;;5055629;28;20203;-69
2022/06/11 05:59:20;;;;;;;6.07;5.32;;;;;;;;;;5055857;28;20423;-68
2022/06/11 06:01:47;;;;;;;5.30;4.80;;;;;;;;;;5055446;28;20172;-68
2022/06/11 06:04:13;;;;;;;5.40;4.80;;;;;;;;;;5055627;28;20194;-68
2022/06/11 06:06:38;;;;;;;5.35;4.85;;;;;;;;;;5055379;28;20664;-69
2022/06/11 06:09:05;;;;;;;5.45;4.93;;;;;;;;;;5055338;28;20168;-69
2022/06/11 06:11:31;;;;;;;5.30;4.68;;;;;;;;;;5055292;28;20199;-68
2022/06/11 06:13:57;;;;;;;5.63;4.45;;;;;;;;;;5055414;28;20161;-69
2022/06/11 06:16:25;;;;;;;5.90;4.95;;;;;;;;;;5055283;28;20179;-69
2022/06/11 06:18:51;;;;;;;6.47;4.50;;;;;;;;;;5055200;28;20164;-69
2022/06/11 06:21:23;;;;;;;5.72;3.80;;;;;;;;;;5055296;28;20173;-69
2022/06/11 06:23:49;;;;;;;5.03;4.18;;;;;;;;;;5055075;28;20495;-69
2022/06/11 06:26:15;;;;;;;5.28;4.80;;;;;;;;;;5055294;28;20196;-69
2022/06/11 06:28:41;;;;;;;5.25;4.13;;;;;;;;;;5055006;28;20168;-68
2022/06/11 06:31:08;;;;;;;4.82;4.30;;;;;;;;;;5055736;28;20462;-69
2022/06/11 06:33:34;;;;;;;4.82;4.38;;;;;;;;;;5055003;28;20478;-69
2022/06/11 06:36:01;;;;;;;5.00;4.30;;;;;;;;;;5054954;28;20164;-68
2022/06/11 06:38:27;;;;;;;5.47;3.97;;;;;;;;;;5054879;28;20497;-69
2022/06/11 06:40:54;;;;;;;5.95;4.78;;;;;;;;;;5055028;28;20160;-68
2022/06/11 06:43:20;;;;;;;5.45;4.43;;;;;;;;;;5055046;28;20486;-69
2022/06/11 06:45:46;;;;;;;5.32;4.50;;;;;;;;;;5054175;28;20247;-68
2022/06/11 06:48:12;;;;;;;5.53;4.35;;;;;;;;;;5054349;28;20199;-68
2022/06/11 06:50:38;;;;;;;5.05;4.30;;;;;;;;;;5055112;28;20152;-69
2022/06/11 06:53:04;;;;;;;5.13;4.43;;;;;;;;;;5054498;28;20552;-69
2022/06/11 06:55:30;;;;;;;5.30;4.45;;;;;;;;;;5054588;28;20160;-69
2022/06/11 06:57:57;;;;;;;4.50;4.10;;;;;;;;;;5054594;28;20175;-69
2022/06/11 07:00:23;;;;;;;5.57;4.45;;;;;;;;;;5054417;28;20168;-69
2022/06/11 07:02:49;;;;;;;6.03;4.47;;;;;;;;;;5054378;28;20165;-69
2022/06/11 07:05:17;;;;;;;4.80;4.30;;;;;;;;;;5054591;28;20558;-69
2022/06/11 07:07:43;;;;;;;5.28;4.43;;;;;;;;;;5054170;28;20659;-69
2022/06/11 07:10:10;;;;;;;4.80;4.35;;;;;;;;;;5054152;28;20623;-69
2022/06/11 07:12:36;;;;;;;5.47;4.40;;;;;;;;;;5054212;28;20180;-69
2022/06/11 07:15:02;;;;;;;4.78;4.07;;;;;;;;;;5054560;28;20161;-69
2022/06/11 07:17:30;;;;;;;5.57;3.95;;;;;;;;;;5054452;28;20251;-69
2022/06/11 07:19:59;;;;;;;7.30;4.38;;;;;;;;;;5054039;28;20172;-69
2022/06/11 07:22:35;;;;;;;4.75;4.35;;;;;;;;;;5054151;28;20535;-69
2022/06/11 07:25:02;;;;;;;5.93;4.40;;;;;;;;;;5054141;28;20603;-69
2022/06/11 07:27:29;;;;;;;5.80;4.10;;;;;;;;;;5053807;28;20188;-69
2022/06/11 07:29:57;;;;;;;5.00;4.50;;;;;;;;;;5053915;28;20164;-70
2022/06/11 07:32:25;;;;;;;5.07;4.22;;;;;;;;;;5053923;28;20203;-69
2022/06/11 07:34:51;;;;;;;5.72;4.15;;;;;;;;;;5054065;28;20192;-69
2022/06/11 07:37:17;;;;;;;4.80;4.30;;;;;;;;;;5053787;28;20278;-69
2022/06/11 07:39:44;;;;;;;4.78;4.28;;;;;;;;;;5053692;28;20168;-69
2022/06/11 07:42:10;;;;;;;4.63;3.80;;;;;;;;;;5053869;28;20196;-69
2022/06/11 07:44:36;;;;;;;5.20;3.97;;;;;;;;;;5053772;28;20189;-69
2022/06/11 07:47:03;;;;;;;6.28;4.25;;;;;;;;;;5053735;28;20644;-69
2022/06/11 07:49:29;;;;;;;6.60;4.22;;;;;;;;;;5054074;28;20176;-69
2022/06/11 07:51:55;;;;;;;4.65;3.92;;;;;;;;;;5053970;28;20168;-69
2022/06/11 07:54:21;;;;;;;6.22;3.85;;;;;;;;;;5054055;28;20432;-69
2022/06/11 07:56:47;;;;;;;4.97;3.90;;;;;;;;;;5053568;28;20665;-69
2022/06/11 07:59:13;;;;;;;5.30;3.75;;;;;;;;;;5053230;28;20168;-69
2022/06/11 08:01:39;;;;;;;8.02;3.83;;;;;;;;;;5053686;28;20192;-68
2022/06/11 08:04:05;;;;;;;5.32;3.85;;;;;;;;;;5053346;28;20207;-69
2022/06/11 08:06:31;;;;;;;5.43;4.00;;;;;;;;;;5053289;28;20212;-69
2022/06/11 08:08:58;;;;;;;4.70;3.70;;;;;;;;;;5053557;28;20196;-69
2022/06/11 08:11:24;;;;;;;4.55;3.63;;;;;;;;;;5053322;28;20656;-69
2022/06/11 08:13:50;;;;;;;4.28;3.92;;;;;;;;;;5053327;28;20230;-69
2022/06/11 08:16:16;;;;;;;7.00;4.10;;;;;;;;;;5053158;28;20161;-69
2022/06/11 08:18:42;;;;;;;4.13;3.72;;;;;;;;;;5053277;28;20183;-69
2022/06/11 08:21:08;;;;;;;3.72;3.28;;;;;;;;;;5053412;28;20175;-69
2022/06/11 08:23:34;;;;;;;5.35;3.75;;;;;;;;;;5053094;28;20169;-69
2022/06/11 08:26:01;;;;;;;3.95;3.60;;;;;;;;;;5052989;28;20195;-68
2022/06/11 08:28:27;;;;;;;5.15;3.78;;;;;;;;;;5053201;28;20231;-68
2022/06/11 08:30:53;;;;;;;3.63;3.33;;;;;;;;;;5053090;28;20187;-69
2022/06/11 08:33:19;;;;;;;4.68;3.92;;;;;;;;;;5053086;28;20525;-69
2022/06/11 08:35:46;;;;;;;3.80;3.45;;;;;;;;;;5053312;28;20164;-69
2022/06/11 08:38:12;;;;;;;4.03;3.38;;;;;;;;;;5053428;28;20579;-67
2022/06/11 08:40:40;;;;;;;6.25;3.67;;;;;;;;;;5053020;28;20218;-69
2022/06/11 08:43:21;;;;;;;3.88;3.55;;;;;;;;;;5053092;28;20165;-69
2022/06/11 08:45:53;;;;;;;4.18;3.50;;;;;;;;;;5053118;28;20164;-68
2022/06/11 08:48:37;;;;;;;6.57;3.90;;;;;;;;;;5052832;28;20210;-69
2022/06/11 08:51:22;;;;;;;5.72;3.45;;;;;;;;;;5052837;28;20167;-69
2022/06/11 08:53:50;;;;;;;4.68;2.88;;;;;;;;;;5053893;28;20164;-69
2022/06/11 08:56:20;;;;;;;3.30;3.00;;;;;;;;;;5053533;28;20243;-69
2022/06/11 08:58:56;;;;;;;5.05;3.65;;;;;;;;;;5052939;28;20246;-69
2022/06/11 09:01:29;;;;;;;4.78;2.90;;;;;;;;;;5052892;28;20576;-69
2022/06/11 09:04:04;;;;;;;6.30;3.63;;;;;;;;;;5052898;28;20191;-69
2022/06/11 09:06:36;;;;;;;5.22;3.40;;;;;;;;;;5052666;28;20183;-68
2022/06/11 09:09:02;;;;;;;4.90;3.33;;;;;;;;;;5052817;28;20161;-69
2022/06/11 09:11:37;;;;;;;4.75;3.72;;;;;;;;;;5056639;28;20261;-69
2022/06/11 09:14:03;;;;;;;4.88;3.67;;;;;;;;;;5056587;28;20163;-69
2022/06/11 09:16:32;;;;;;;4.32;3.92;;;;;;;;;;5056441;28;20253;-68
2022/06/11 09:19:01;;;;;;;4.57;3.28;;;;;;;;;;5056430;28;20243;-69
2022/06/11 09:21:41;;;;;;;4.50;3.78;;;;;;;;;;5056242;28;20238;-69
2022/06/11 09:24:16;;;;;;;5.50;3.30;;;;;;;;;;5056384;28;20156;-69
2022/06/11 09:26:46;;;;;;;3.17;2.95;;;;;;;;;;5056190;28;20630;-69
2022/06/11 09:29:12;;;;;;;5.78;4.22;;;;;;;;;;5056459;28;20164;-69
2022/06/11 09:31:45;;;;;;;5.10;3.65;;;;;;;;;;5056298;28;20622;-69
2022/06/11 09:34:15;;;;;;;5.97;4.03;;;;;;;;;;5056443;28;20490;-69
2022/06/11 09:36:42;;;;;;;5.57;4.32;;;;;;;;;;5056186;28;20168;-69
2022/06/11 09:39:26;;;;;;;5.25;4.25;;;;;;;;;;5055931;28;20160;-69
2022/06/11 09:41:57;;;;;;;6.90;4.32;;;;;;;;;;5055910;28;20167;-69
2022/06/11 09:44:37;;;;;;;5.32;4.18;;;;;;;;;;5055929;28;20153;-69
2022/06/11 09:47:14;;;;;;;6.15;4.28;;;;;;;;;;5055864;28;20378;-69
2022/06/11 09:49:50;;;;;;;5.55;3.83;;;;;;;;;;5055868;28;20153;-69
2022/06/11 09:52:20;;;;;;;6.53;4.65;;;;;;;;;;5055681;28;20156;-69
2022/06/11 09:55:04;;;;;;;5.95;4.30;;;;;;;;;;5055726;28;20171;-69
2022/06/11 09:57:30;;;;;;;3.63;3.30;;;;;;;;;;5055745;28;20159;-69
2022/06/11 10:00:03;;;;;;;5.75;3.90;;;;;;;;;;5055765;28;20187;-69
2022/06/11 10:02:59;;;;;;;4.47;3.80;;;;;;;;;;5055575;28;20172;-69
2022/06/11 10:05:45;;;;;;;5.55;3.75;;;;;;;;;;5055740;28;20153;-69
2022/06/11 10:08:16;;;;;;;6.63;3.88;;;;;;;;;;5055135;28;20208;-69
2022/06/11 10:10:45;;;;;;;4.32;3.38;;;;;;;;;;5055374;28;20145;-69
2022/06/11 10:13:30;;;;;;;5.18;3.38;;;;;;;;;;5055539;28;20164;-69
2022/06/11 10:15:58;;;;;;;5.38;3.72;;;;;;;;;;5055135;28;20168;-69
2022/06/11 10:18:27;;;;;;;3.80;3.08;;;;;;;;;;5055175;28;20175;-69
2022/06/11 10:21:05;;;;;;;4.57;3.38;;;;;;;;;;5055166;28;20489;-70
2022/06/11 10:23:35;;;;;;;3.53;3.13;;;;;;;;;;5055197;28;20148;-69
2022/06/11 10:26:10;;;;;;;3.55;2.78;;;;;;;;;;5055049;28;20149;-69
2022/06/11 10:28:44;;;;;;;3.70;3.25;;;;;;;;;;5055154;28;20187;-69
2022/06/11 10:31:13;;;;;;;5.90;4.60;;;;;;;;;;5055186;28;20141;-69
2022/06/11 10:33:46;;;;;;;6.60;4.30;;;;;;;;;;5055418;28;20604;-69
2022/06/11 10:36:17;;;;;;;4.53;3.95;;;;;;;;;;5054934;28;20148;-69
2022/06/11 10:38:56;;;;;;;5.32;4.00;;;;;;;;;;5055045;28;20225;-69
2022/06/11 10:41:28;;;;;;;6.35;4.28;;;;;;;;;;5054861;28;20145;-69
2022/06/11 10:44:04;;;;;;;3.97;3.67;;;;;;;;;;5055253;28;20164;-69
2022/06/11 10:46:31;;;;;;;6.80;3.72;;;;;;;;;;5054798;28;20537;-69
2022/06/11 10:48:59;;;;;;;3.80;3.50;;;;;;;;;;5054837;28;20137;-69
2022/06/11 10:51:28;;;;;;;4.35;3.97;;;;;;;;;;5055062;28;20183;-69
2022/06/11 10:53:58;;;;;;;5.75;3.70;;;;;;;;;;5054917;28;20161;-69
2022/06/11 10:56:44;;;;;;;4.15;3.75;;;;;;;;;;5055044;28;20243;-69
2022/06/11 10:59:31;;;;;;;4.22;3.75;;;;;;;;;;5054521;28;20235;-69
2022/06/11 11:02:01;;;;;;;4.72;4.20;;;;;;;;;;5054697;28;20160;-69
2022/06/11 11:04:39;;;;;;;5.38;4.75;;;;;;;;;;5054403;28;20235;-69
2022/06/11 11:07:11;;;;;;;5.50;4.50;;;;;;;;;;5054338;28;20228;-69
2022/06/11 11:09:37;;;;;;;6.47;5.03;;;;;;;;;;5054383;28;20165;-69
2022/06/11 11:12:07;;;;;;;6.40;4.93;;;;;;;;;;5054168;28;20264;-69
2022/06/11 11:14:33;;;;;;;7.63;5.93;;;;;;;;;;5054510;28;20164;-69
2022/06/11 11:17:00;;;;;;;7.82;5.18;;;;;;;;;;5054431;28;20172;-69
2022/06/11 11:19:28;;;;;;;6.03;4.57;;;;;;;;;;5054302;28;20170;-69
2022/06/11 11:21:59;;;;;;;5.07;4.40;;;;;;;;;;5054034;28;20168;-69
2022/06/11 11:24:28;;;;;;;5.65;3.88;;;;;;;;;;5054078;28;20192;-69
2022/06/11 11:27:00;;;;;;;4.18;3.78;;;;;;;;;;5053745;28;20194;-69
2022/06/11 11:29:26;;;;;;;4.95;3.90;;;;;;;;;;5053891;28;20505;-69
2022/06/11 11:31:54;;;;;;;4.95;3.95;;;;;;;;;;5053297;28;20172;-69
2022/06/11 11:34:27;;;;;;;3.60;3.30;;;;;;;;;;5054296;28;20226;-69
2022/06/11 11:37:18;;;;;;;5.72;4.40;;;;;;;;;;5053700;28;20207;-69
2022/06/11 11:39:52;;;;;;;4.90;4.40;;;;;;;;;;5053763;28;20168;-69
2022/06/11 11:42:19;;;;;;;4.57;3.85;;;;;;;;;;5053873;28;20168;-69
2022/06/11 11:44:49;;;;;;;5.35;4.45;;;;;;;;;;5053619;28;20604;-69
2022/06/11 11:47:26;;;;;;;4.20;3.80;;;;;;;;;;5053534;28;20212;-69
2022/06/11 11:49:57;;;;;;;5.50;5.00;;;;;;;;;;5053556;28;20152;-69
2022/06/11 11:52:24;;;;;;;4.65;4.25;;;;;;;;;;5053705;28;20180;-69
2022/06/11 11:54:53;;;;;;;6.85;4.32;;;;;;;;;;5053590;28;20515;-69
2022/06/11 11:57:20;;;;;;;6.22;5.03;;;;;;;;;;5053618;28;20172;-69
2022/06/11 12:00:00;;;;;;;6.07;4.70;;;;;;;;;;5053398;28;20693;-69
2022/06/11 12:02:31;;;;;;;5.55;5.03;;;;;;;;;;5053292;28;20172;-69
2022/06/11 12:05:10;;;;;;;5.72;5.20;;;;;;;;;;5053476;28;20152;-69
2022/06/11 12:07:41;;;;;;;6.13;4.50;;;;;;;;;;5053269;28;20180;-69
2022/06/11 12:10:07;;;;;;;4.45;3.95;;;;;;;;;;5053493;28;20251;-69
2022/06/11 12:12:36;;;;;;;5.57;4.80;;;;;;;;;;5053353;28;20611;-69
2022/06/11 12:15:14;;;;;;;4.80;4.40;;;;;;;;;;5053436;28;20595;-69
2022/06/11 12:17:46;;;;;;;4.70;4.30;;;;;;;;;;5053399;28;20219;-69
2022/06/11 12:20:14;;;;;;;5.18;4.68;;;;;;;;;;5053417;28;20255;-69
2022/06/11 12:22:44;;;;;;;5.53;4.57;;;;;;;;;;5053326;28;20194;-68
2022/06/11 12:25:20;;;;;;;5.90;4.03;;;;;;;;;;5053896;28;20488;-69
2022/06/11 12:27:48;;;;;;;5.85;4.22;;;;;;;;;;5053607;28;20279;-69
2022/06/11 12:30:21;;;;;;;4.82;4.32;;;;;;;;;;5053623;28;20238;-69
2022/06/11 12:32:47;;;;;;;4.60;4.22;;;;;;;;;;5053515;28;20509;-68
2022/06/11 12:35:15;;;;;;;5.53;4.32;;;;;;;;;;5053664;28;20192;-69
2022/06/11 12:37:48;;;;;;;4.68;3.70;;;;;;;;;;5053568;28;20204;-69
2022/06/11 12:40:34;;;;;;;6.53;4.30;;;;;;;;;;5053182;28;20191;-69
2022/06/11 12:43:00;;;;;;;4.72;4.10;;;;;;;;;;5053513;28;20240;-69
2022/06/11 12:45:45;;;;;;;4.90;4.43;;;;;;;;;;5057135;28;20563;-69
2022/06/11 12:48:29;;;;;;;4.90;3.95;;;;;;;;;;5056742;28;20208;-69
2022/06/11 12:50:58;;;;;;;7.32;4.30;;;;;;;;;;5057048;28;20169;-69
2022/06/11 12:53:40;;;;;;;6.78;4.22;;;;;;;;;;5056782;28;20461;-68
2022/06/11 12:56:18;;;;;;;4.55;4.15;;;;;;;;;;5056822;28;20221;-69
2022/06/11 12:59:02;;;;;;;4.65;4.22;;;;;;;;;;5057024;28;20467;-69
2022/06/11 13:01:47;;;;;;;3.92;3.55;;;;;;;;;;5057141;28;20157;-69
2022/06/11 13:04:19;;;;;;;6.30;3.67;;;;;;;;;;5056819;28;20172;-69
2022/06/11 13:06:50;;;;;;;4.30;3.70;;;;;;;;;;5056881;28;20200;-69
2022/06/11 13:09:33;;;;;;;4.50;3.70;;;;;;;;;;5057118;28;20524;-69
2022/06/11 13:12:08;;;;;;;4.35;3.45;;;;;;;;;;5056638;28;20141;-69
2022/06/11 13:14:52;;;;;;;3.92;3.20;;;;;;;;;;5056538;28;20576;-69
2022/06/11 13:17:25;;;;;;;4.22;3.40;;;;;;;;;;5056738;28;20172;-69
2022/06/11 13:19:56;;;;;;;3.80;3.28;;;;;;;;;;5056563;28;20144;-68
2022/06/11 13:22:22;;;;;;;3.58;3.20;;;;;;;;;;5056192;28;20149;-68
2022/06/11 13:24:53;;;;;;;4.70;3.15;;;;;;;;;;5056332;28;20179;-68
2022/06/11 13:27:18;;;;;;;5.85;3.78;;;;;;;;;;5056261;28;20535;-68
2022/06/11 13:29:53;;;;;;;5.55;3.92;;;;;;;;;;5056142;28;20215;-68
2022/06/11 13:32:19;;;;;;;4.28;3.65;;;;;;;;;;5056156;28;20159;-68
2022/06/11 13:34:45;;;;;;;3.97;3.25;;;;;;;;;;5055908;28;20488;-68
2022/06/11 13:37:23;;;;;;;9.25;3.17;;;;;;;;;;5056141;28;20255;-68
2022/06/11 13:40:07;;;;;;;3.47;3.03;;;;;;;;;;5055984;28;20572;-68
2022/06/11 13:42:42;;;;;;;4.10;3.67;;;;;;;;;;5055950;28;20252;-68
2022/06/11 13:45:28;;;;;;;3.75;3.40;;;;;;;;;;5055886;28;20167;-68
2022/06/11 13:48:14;;;;;;;5.82;3.85;;;;;;;;;;5044472;28;20232;-68
2022/06/11 13:50:40;;;;;;;3.75;2.78;;;;;;;;;;5056060;28;20176;-68
2022/06/11 13:56:00;;;;;;;5.90;3.55;;;;;;;;;;5055167;28;20283;-69
2022/06/11 13:58:26;;;;;;;4.53;3.63;;;;;;;;;;5055505;28;20198;-69
2022/06/11 14:01:02;;;;;;;5.78;3.75;;;;;;;;;;5055607;28;20184;-69
2022/06/11 14:03:44;;;;;;;6.13;3.67;;;;;;;;;;5055554;28;20171;-68
2022/06/11 14:06:11;;;;;;;3.92;3.42;;;;;;;;;;5055823;28;20164;-69
2022/06/11 14:08:42;;;;;;;5.53;4.30;;;;;;;;;;5055383;28;20176;-69
2022/06/11 14:11:16;;;;;;;5.28;3.47;;;;;;;;;;5055533;28;20160;-69
2022/06/11 14:13:55;;;;;;;5.03;4.03;;;;;;;;;;5055035;28;20170;-69
2022/06/11 14:16:36;;;;;;;4.20;3.13;;;;;;;;;;5055710;28;20274;-69
2022/06/11 14:19:17;;;;;;;3.63;2.95;;;;;;;;;;5055246;28;20454;-69
2022/06/11 14:21:49;;;;;;;3.20;2.90;;;;;;;;;;5055820;28;20165;-69
2022/06/11 14:24:34;;;;;;;3.50;3.20;;;;;;;;;;5055109;28;20221;-69
2022/06/11 14:27:00;;;;;;;8.13;4.10;;;;;;;;;;5055299;28;20188;-70
2022/06/11 14:29:27;;;;;;;4.50;3.20;;;;;;;;;;5055228;28;20514;-70
2022/06/11 14:31:56;;;;;;;5.85;3.17;;;;;;;;;;5054984;28;20536;-70
2022/06/11 14:34:25;;;;;;;4.72;2.85;;;;;;;;;;5054908;28;20225;-70
2022/06/11 14:37:06;;;;;;;4.28;2.78;;;;;;;;;;5054916;28;20263;-69
2022/06/11 14:39:33;;;;;;;5.72;3.30;;;;;;;;;;5054767;28;20160;-70
2022/06/11 14:42:20;;;;;;;4.63;2.83;;;;;;;;;;5055185;28;20171;-70
2022/06/11 14:45:06;;;;;;;4.65;2.75;;;;;;;;;;5054729;28;20178;-70
2022/06/11 14:47:51;;;;;;;3.95;2.80;;;;;;;;;;5054437;28;20222;-69
2022/06/11 14:50:35;;;;;;;4.53;3.08;;;;;;;;;;5054639;28;20207;-70
2022/06/11 14:53:06;;;;;;;3.63;2.60;;;;;;;;;;5054648;28;20354;-70
2022/06/11 14:55:35;;;;;;;5.22;3.13;;;;;;;;;;5054643;28;20482;-70
2022/06/11 14:58:25;;;;;;;5.63;2.90;;;;;;;;;;5054538;28;20175;-70
2022/06/11 15:00:58;;;;;;;5.35;2.63;;;;;;;;;;5044435;28;20195;-70